Time;durP1;ratioP1;P1;durP2;ratioP2;P2;SDS_P1;SDS_P2;PMS_P1;PMS_P2;Temp;Humidity;BMP_temperature;BMP_pressure;BME280_temperature;BME280_humidity;BME280_pressure;Samples;Min_cycle;Max_cycle;Signal;HPM_P1;HPM_P2
2024/03/24 00:01:22;;;;;;;1.88;1.65;;;;;;;;;;5071823;28;20426;-62
2024/03/24 00:03:47;;;;;;;2.22;1.85;;;;;;;;;;5071585;28;20128;-62
2024/03/24 00:06:14;;;;;;;5.13;2.30;;;;;;;;;;5071474;28;20029;-57
2024/03/24 00:08:39;;;;;;;2.45;2.00;;;;;;;;;;5071831;28;20380;-62
2024/03/24 00:11:06;;;;;;;4.00;2.50;;;;;;;;;;5072967;28;20031;-62
2024/03/24 00:13:32;;;;;;;3.85;2.72;;;;;;;;;;5072260;28;20033;-62
2024/03/24 00:15:57;;;;;;;4.22;2.75;;;;;;;;;;5072220;28;20044;-62
2024/03/24 00:18:23;;;;;;;3.67;2.40;;;;;;;;;;5073553;28;20024;-62
2024/03/24 00:20:49;;;;;;;3.05;2.50;;;;;;;;;;5076024;28;20531;-62
2024/03/24 00:23:15;;;;;;;4.18;2.50;;;;;;;;;;5074733;28;20075;-62
2024/03/24 00:25:40;;;;;;;4.00;2.60;;;;;;;;;;5075865;28;20016;-62
2024/03/24 00:28:14;;;;;;;2.63;2.40;;;;;;;;;;5076157;28;20511;-62
2024/03/24 00:30:39;;;;;;;2.75;2.50;;;;;;;;;;5074691;28;20060;-63
2024/03/24 00:33:04;;;;;;;5.90;2.85;;;;;;;;;;5074399;28;20032;-62
2024/03/24 00:35:30;;;;;;;4.07;2.65;;;;;;;;;;5075403;28;20040;-63
2024/03/24 00:38:09;;;;;;;5.82;2.97;;;;;;;;;;5074335;28;20047;-63
2024/03/24 00:40:34;;;;;;;4.78;3.28;;;;;;;;;;5075093;28;20031;-63
2024/03/24 00:43:03;;;;;;;4.15;2.97;;;;;;;;;;5075576;28;20032;-63
2024/03/24 00:45:28;;;;;;;4.78;3.20;;;;;;;;;;5002987;23;20077;-57
2024/03/24 00:47:56;;;;;;;5.03;3.05;;;;;;;;;;5023414;23;20054;-57
2024/03/24 00:50:21;;;;;;;5.22;3.08;;;;;;;;;;5026535;23;20046;-62
2024/03/24 00:52:46;;;;;;;4.10;3.08;;;;;;;;;;5013100;28;20041;-57
2024/03/24 00:55:12;;;;;;;4.78;2.70;;;;;;;;;;5013039;28;20481;-58
2024/03/24 00:57:37;;;;;;;3.33;2.60;;;;;;;;;;5013342;28;20036;-62
2024/03/24 01:00:02;;;;;;;4.88;2.60;;;;;;;;;;4995217;28;20026;-62
2024/03/24 01:02:28;;;;;;;5.13;2.78;;;;;;;;;;5012286;28;20065;-57
2024/03/24 01:04:54;;;;;;;3.03;2.30;;;;;;;;;;5012991;28;20041;-57
2024/03/24 01:07:19;;;;;;;4.20;2.75;;;;;;;;;;5013402;28;20471;-57
2024/03/24 01:09:45;;;;;;;3.38;2.85;;;;;;;;;;4995192;28;20032;-58
2024/03/24 01:12:10;;;;;;;3.45;2.60;;;;;;;;;;5012715;28;20045;-58
2024/03/24 01:14:36;;;;;;;2.97;2.45;;;;;;;;;;5012656;28;20131;-58
2024/03/24 01:17:01;;;;;;;5.32;2.65;;;;;;;;;;5012516;28;20033;-58
2024/03/24 01:19:26;;;;;;;3.22;2.53;;;;;;;;;;5012644;28;20049;-58
2024/03/24 01:21:52;;;;;;;4.57;2.90;;;;;;;;;;5013083;28;20109;-58
2024/03/24 01:24:18;;;;;;;2.97;2.60;;;;;;;;;;4997140;28;20022;-58
2024/03/24 01:26:44;;;;;;;4.38;2.67;;;;;;;;;;4996995;28;20441;-58
2024/03/24 01:29:12;;;;;;;3.05;2.30;;;;;;;;;;5014575;28;20029;-58
2024/03/24 01:31:37;;;;;;;3.25;2.70;;;;;;;;;;5014818;28;20041;-58
2024/03/24 01:34:02;;;;;;;2.40;2.20;;;;;;;;;;5015003;28;20014;-58
2024/03/24 01:36:28;;;;;;;3.03;2.75;;;;;;;;;;4996888;28;20042;-58
2024/03/24 01:38:53;;;;;;;6.28;2.70;;;;;;;;;;5014652;28;20087;-58
2024/03/24 01:41:18;;;;;;;4.80;2.80;;;;;;;;;;4996814;28;20038;-58
2024/03/24 01:43:44;;;;;;;4.68;2.97;;;;;;;;;;5014862;28;20025;-58
2024/03/24 01:46:09;;;;;;;4.53;3.72;;;;;;;;;;5014287;28;20041;-58
2024/03/24 01:48:35;;;;;;;7.13;4.15;;;;;;;;;;5014523;28;20038;-58
2024/03/24 01:51:02;;;;;;;9.25;4.90;;;;;;;;;;5014189;28;20222;-58
2024/03/24 01:53:28;;;;;;;6.82;4.95;;;;;;;;;;4996556;28;20492;-57
2024/03/24 01:55:53;;;;;;;9.25;5.40;;;;;;;;;;4996516;28;20038;-58
2024/03/24 01:58:20;;;;;;;9.77;5.30;;;;;;;;;;4996424;28;20037;-57
2024/03/24 02:00:45;;;;;;;7.40;5.10;;;;;;;;;;5014102;28;20433;-62
2024/03/24 02:03:11;;;;;;;7.22;4.32;;;;;;;;;;5014322;28;20030;-57
2024/03/24 02:05:36;;;;;;;5.53;4.28;;;;;;;;;;4996343;28;20026;-57
2024/03/24 02:08:01;;;;;;;6.28;4.10;;;;;;;;;;5029269;28;20030;-57
2024/03/24 02:10:28;;;;;;;6.60;3.92;;;;;;;;;;5014239;28;20065;-57
2024/03/24 02:12:53;;;;;;;6.82;4.25;;;;;;;;;;5014042;28;20088;-57
2024/03/24 02:15:19;;;;;;;8.02;4.90;;;;;;;;;;5013943;28;20022;-57
2024/03/24 02:17:44;;;;;;;9.02;5.10;;;;;;;;;;5014122;28;20427;-56
2024/03/24 02:20:12;;;;;;;6.70;5.00;;;;;;;;;;4996175;28;20037;-56
2024/03/24 02:22:41;;;;;;;7.90;5.40;;;;;;;;;;5028993;28;20420;-56
2024/03/24 02:25:07;;;;;;;4.93;4.43;;;;;;;;;;5013771;28;20034;-56
2024/03/24 02:27:32;;;;;;;6.75;4.20;;;;;;;;;;5014034;28;20029;-57
2024/03/24 02:29:58;;;;;;;5.07;3.90;;;;;;;;;;5013836;28;20038;-57
2024/03/24 02:32:25;;;;;;;4.82;3.63;;;;;;;;;;5012485;28;20026;-56
2024/03/24 02:34:51;;;;;;;6.30;3.80;;;;;;;;;;5011616;28;20076;-56
2024/03/24 02:37:16;;;;;;;6.57;4.18;;;;;;;;;;4993981;28;20042;-57
2024/03/24 02:39:41;;;;;;;7.00;4.13;;;;;;;;;;5011495;28;20037;-57
2024/03/24 02:42:07;;;;;;;7.82;4.20;;;;;;;;;;5011551;28;20030;-58
2024/03/24 02:44:32;;;;;;;6.30;4.38;;;;;;;;;;5011934;28;20021;-57
2024/03/24 02:46:57;;;;;;;7.57;5.30;;;;;;;;;;5012474;28;20117;-57
2024/03/24 02:49:23;;;;;;;8.65;6.00;;;;;;;;;;5011910;28;20370;-57
2024/03/24 02:51:48;;;;;;;9.52;6.15;;;;;;;;;;5011347;28;20515;-57
2024/03/24 02:54:13;;;;;;;7.10;5.30;;;;;;;;;;5011371;28;20025;-57
2024/03/24 02:56:39;;;;;;;8.40;5.22;;;;;;;;;;5011429;28;20481;-57
2024/03/24 02:59:04;;;;;;;8.77;5.60;;;;;;;;;;5011298;28;20416;-57
2024/03/24 03:01:30;;;;;;;8.68;5.78;;;;;;;;;;5026473;28;20045;-57
2024/03/24 03:03:57;;;;;;;8.00;5.70;;;;;;;;;;5011973;28;20026;-57
2024/03/24 03:06:22;;;;;;;8.52;5.38;;;;;;;;;;4995774;28;20026;-56
2024/03/24 03:08:47;;;;;;;12.73;5.60;;;;;;;;;;5013715;28;20354;-58
2024/03/24 03:11:13;;;;;;;7.88;5.18;;;;;;;;;;5013358;28;20527;-57
2024/03/24 03:13:38;;;;;;;17.05;6.63;;;;;;;;;;5013380;28;20477;-57
2024/03/24 03:16:05;;;;;;;21.85;7.85;;;;;;;;;;5013614;28;20469;-57
2024/03/24 03:18:31;;;;;;;18.90;11.07;;;;;;;;;;5013496;28;20030;-57
2024/03/24 03:20:57;;;;;;;24.58;14.05;;;;;;;;;;5013314;28;20527;-56
2024/03/24 03:23:22;;;;;;;17.30;10.32;;;;;;;;;;5013537;28;20094;-57
2024/03/24 03:25:48;;;;;;;12.85;8.30;;;;;;;;;;5016711;28;20117;-56
2024/03/24 03:28:13;;;;;;;16.35;8.00;;;;;;;;;;5016797;28;20034;-57
2024/03/24 03:30:39;;;;;;;12.85;7.18;;;;;;;;;;4999106;28;20036;-57
2024/03/24 03:33:05;;;;;;;10.20;6.65;;;;;;;;;;5016985;28;20112;-56
2024/03/24 03:35:30;;;;;;;9.75;5.82;;;;;;;;;;4999457;28;20118;-56
2024/03/24 03:37:55;;;;;;;5.75;4.70;;;;;;;;;;5016824;28;20029;-56
2024/03/24 03:40:21;;;;;;;7.32;5.43;;;;;;;;;;5017145;28;20097;-56
2024/03/24 03:42:46;;;;;;;7.47;5.63;;;;;;;;;;5016511;28;20026;-56
2024/03/24 03:45:14;;;;;;;8.00;5.82;;;;;;;;;;5016746;28;20022;-56
2024/03/24 03:47:40;;;;;;;7.10;5.47;;;;;;;;;;5016708;28;20033;-56
2024/03/24 03:50:12;;;;;;;9.35;5.70;;;;;;;;;;4998744;28;20037;-56
2024/03/24 03:52:38;;;;;;;8.77;5.88;;;;;;;;;;5016213;28;20045;-56
2024/03/24 03:55:11;;;;;;;7.28;5.90;;;;;;;;;;5016543;28;20044;-56
2024/03/24 03:57:36;;;;;;;8.85;6.03;;;;;;;;;;5016170;28;20033;-57
2024/03/24 04:00:05;;;;;;;9.30;6.90;;;;;;;;;;5016484;28;20026;-57
2024/03/24 04:02:40;;;;;;;14.80;9.80;;;;;;;;;;5016451;28;20037;-57
2024/03/24 04:05:12;;;;;;;11.93;7.53;;;;;;;;;;4998523;28;20022;-56
2024/03/24 04:07:38;;;;;;;13.50;9.65;;;;;;;;;;5016058;28;20113;-56
2024/03/24 04:10:05;;;;;;;15.45;10.13;;;;;;;;;;5016262;28;20521;-56
2024/03/24 04:12:31;;;;;;;10.93;7.63;;;;;;;;;;5016247;28;20405;-57
2024/03/24 04:15:00;;;;;;;11.40;7.18;;;;;;;;;;5016178;28;20060;-57
2024/03/24 04:17:26;;;;;;;12.02;7.15;;;;;;;;;;5016322;28;20018;-57
2024/03/24 04:19:51;;;;;;;11.93;6.63;;;;;;;;;;5016123;28;20045;-57
2024/03/24 04:22:17;;;;;;;10.07;7.15;;;;;;;;;;5015774;28;20029;-57
2024/03/24 04:24:43;;;;;;;15.82;11.00;;;;;;;;;;4998889;28;20110;-57
2024/03/24 04:27:09;;;;;;;15.88;10.48;;;;;;;;;;5016252;28;20108;-56
2024/03/24 04:29:34;;;;;;;13.30;9.55;;;;;;;;;;5015620;28;20472;-56
2024/03/24 04:31:59;;;;;;;12.00;9.63;;;;;;;;;;5015044;28;20081;-56
2024/03/24 04:34:26;;;;;;;13.02;9.48;;;;;;;;;;5013398;28;20034;-56
2024/03/24 04:36:51;;;;;;;12.20;8.38;;;;;;;;;;5013274;28;20042;-56
2024/03/24 04:39:19;;;;;;;12.15;8.40;;;;;;;;;;5013397;28;20026;-56
2024/03/24 04:41:48;;;;;;;11.27;8.32;;;;;;;;;;5014167;28;20022;-56
2024/03/24 04:44:13;;;;;;;10.50;7.25;;;;;;;;;;4996529;28;20014;-56
2024/03/24 04:46:39;;;;;;;9.35;6.32;;;;;;;;;;4996494;28;20040;-56
2024/03/24 04:49:07;;;;;;;7.70;6.28;;;;;;;;;;4997541;28;20362;-56
2024/03/24 04:51:33;;;;;;;8.50;6.35;;;;;;;;;;5015314;28;20104;-56
2024/03/24 04:53:58;;;;;;;8.93;6.97;;;;;;;;;;4997840;28;20042;-56
2024/03/24 04:56:24;;;;;;;15.40;6.93;;;;;;;;;;5012953;28;20068;-56
2024/03/24 04:58:49;;;;;;;8.55;6.07;;;;;;;;;;5012919;28;20061;-56
2024/03/24 05:01:15;;;;;;;8.90;7.10;;;;;;;;;;5012848;28;20036;-56
2024/03/24 05:03:41;;;;;;;11.23;7.30;;;;;;;;;;5012895;28;20030;-56
2024/03/24 05:06:06;;;;;;;10.07;7.38;;;;;;;;;;5012827;28;20022;-56
2024/03/24 05:08:37;;;;;;;8.10;6.78;;;;;;;;;;5012790;28;20532;-56
2024/03/24 05:11:05;;;;;;;12.68;7.97;;;;;;;;;;5014409;28;20432;-57
2024/03/24 05:13:33;;;;;;;13.32;9.30;;;;;;;;;;5015127;28;20109;-56
2024/03/24 05:15:59;;;;;;;12.25;9.15;;;;;;;;;;5014648;28;20116;-56
2024/03/24 05:18:25;;;;;;;12.57;8.55;;;;;;;;;;5015077;28;20042;-56
2024/03/24 05:20:51;;;;;;;10.93;8.25;;;;;;;;;;5015353;28;20033;-56
2024/03/24 05:23:19;;;;;;;14.98;9.85;;;;;;;;;;4997620;28;20018;-56
2024/03/24 05:25:54;;;;;;;13.75;9.32;;;;;;;;;;5015036;28;20026;-57
2024/03/24 05:28:20;;;;;;;11.10;9.13;;;;;;;;;;5015105;28;20463;-57
2024/03/24 05:30:50;;;;;;;11.18;9.68;;;;;;;;;;5014996;28;20034;-57
2024/03/24 05:33:16;;;;;;;15.52;12.50;;;;;;;;;;5014590;28;20045;-56
2024/03/24 05:35:41;;;;;;;16.17;11.93;;;;;;;;;;5015101;28;20034;-56
2024/03/24 05:38:06;;;;;;;10.82;7.85;;;;;;;;;;5014832;28;20036;-56
2024/03/24 05:40:32;;;;;;;13.55;8.73;;;;;;;;;;5014317;28;20515;-56
2024/03/24 05:42:57;;;;;;;14.32;8.90;;;;;;;;;;5014893;28;20110;-56
2024/03/24 05:45:23;;;;;;;13.73;9.07;;;;;;;;;;5015145;28;20448;-56
2024/03/24 05:47:48;;;;;;;13.85;8.48;;;;;;;;;;5013964;28;20038;-56
2024/03/24 05:50:14;;;;;;;12.88;8.75;;;;;;;;;;5014722;28;20028;-56
2024/03/24 05:52:41;;;;;;;15.07;8.63;;;;;;;;;;4996682;28;20030;-56
2024/03/24 05:55:07;;;;;;;15.18;9.25;;;;;;;;;;4997086;28;20030;-56
2024/03/24 05:57:32;;;;;;;11.77;9.00;;;;;;;;;;5014273;28;20061;-56
2024/03/24 05:59:59;;;;;;;11.73;8.68;;;;;;;;;;5014287;28;20030;-56
2024/03/24 06:02:28;;;;;;;10.35;7.95;;;;;;;;;;5014328;28;20105;-56
2024/03/24 06:04:53;;;;;;;9.05;6.85;;;;;;;;;;4996404;28;20156;-57
2024/03/24 06:07:19;;;;;;;11.20;7.50;;;;;;;;;;5014757;28;20076;-57
2024/03/24 06:09:44;;;;;;;9.88;7.40;;;;;;;;;;5014508;28;20062;-56
2024/03/24 06:12:10;;;;;;;10.32;7.30;;;;;;;;;;5014639;28;20104;-56
2024/03/24 06:14:35;;;;;;;9.98;7.47;;;;;;;;;;5014585;28;20037;-56
2024/03/24 06:17:01;;;;;;;10.13;6.75;;;;;;;;;;5013780;28;20057;-56
2024/03/24 06:19:26;;;;;;;9.60;7.10;;;;;;;;;;5014605;28;20045;-56
2024/03/24 06:21:53;;;;;;;10.27;7.70;;;;;;;;;;5014414;28;20073;-56
2024/03/24 06:24:18;;;;;;;8.80;7.35;;;;;;;;;;5013877;28;20034;-56
2024/03/24 06:26:44;;;;;;;10.77;7.70;;;;;;;;;;5013814;28;20037;-56
2024/03/24 06:29:09;;;;;;;10.10;7.15;;;;;;;;;;5023329;23;20129;-62
2024/03/24 06:31:34;;;;;;;10.60;7.78;;;;;;;;;;4996177;28;20381;-62
2024/03/24 06:34:02;;;;;;;10.95;7.28;;;;;;;;;;5013941;28;20385;-62
2024/03/24 06:36:28;;;;;;;10.20;7.57;;;;;;;;;;5013626;28;20018;-62
2024/03/24 06:38:53;;;;;;;8.60;6.40;;;;;;;;;;5014240;28;20527;-62
2024/03/24 06:41:18;;;;;;;9.55;7.13;;;;;;;;;;5013645;28;20022;-62
2024/03/24 06:43:44;;;;;;;9.93;6.78;;;;;;;;;;5013659;28;20080;-62
2024/03/24 06:46:11;;;;;;;11.95;7.70;;;;;;;;;;5013903;28;20030;-62
2024/03/24 06:48:36;;;;;;;10.95;8.20;;;;;;;;;;4996651;28;20091;-61
2024/03/24 06:51:02;;;;;;;12.52;8.80;;;;;;;;;;4996315;28;20046;-61
2024/03/24 06:53:28;;;;;;;13.75;9.20;;;;;;;;;;5013802;28;20033;-61
2024/03/24 06:55:53;;;;;;;12.63;9.43;;;;;;;;;;5013778;28;20038;-61
2024/03/24 06:58:18;;;;;;;14.55;10.55;;;;;;;;;;5013413;28;20026;-61
2024/03/24 07:00:44;;;;;;;13.85;9.05;;;;;;;;;;5017040;28;20362;-61
2024/03/24 07:03:10;;;;;;;12.25;8.32;;;;;;;;;;5017297;28;20025;-61
2024/03/24 07:05:35;;;;;;;11.55;8.48;;;;;;;;;;5032424;28;20083;-61
2024/03/24 07:08:01;;;;;;;11.68;7.85;;;;;;;;;;4999959;28;20030;-61
2024/03/24 07:10:26;;;;;;;12.25;7.90;;;;;;;;;;5017158;28;20065;-61
2024/03/24 07:12:51;;;;;;;13.75;10.18;;;;;;;;;;5017108;28;20058;-61
2024/03/24 07:15:17;;;;;;;12.43;8.25;;;;;;;;;;5000578;28;20117;-61
2024/03/24 07:17:42;;;;;;;13.55;8.73;;;;;;;;;;5016957;28;20022;-61
2024/03/24 07:20:08;;;;;;;13.00;8.60;;;;;;;;;;5017199;28;20427;-61
2024/03/24 07:22:33;;;;;;;10.57;7.50;;;;;;;;;;5017210;28;20025;-62
2024/03/24 07:24:58;;;;;;;12.50;8.70;;;;;;;;;;5016859;28;20405;-64
2024/03/24 07:27:24;;;;;;;11.50;6.75;;;;;;;;;;5016815;28;20393;-62
2024/03/24 07:29:50;;;;;;;10.88;6.43;;;;;;;;;;4999199;28;20049;-62
2024/03/24 07:32:16;;;;;;;9.45;6.10;;;;;;;;;;5017031;28;20116;-62
2024/03/24 07:34:41;;;;;;;11.50;6.28;;;;;;;;;;5016741;28;20160;-62
2024/03/24 07:37:07;;;;;;;10.27;6.60;;;;;;;;;;5016870;28;20476;-62
2024/03/24 07:39:32;;;;;;;8.07;6.03;;;;;;;;;;4999370;28;20020;-62
2024/03/24 07:41:59;;;;;;;9.50;5.65;;;;;;;;;;5016556;28;20030;-62
2024/03/24 07:44:24;;;;;;;5.75;4.90;;;;;;;;;;4998921;28;20026;-61
2024/03/24 07:46:50;;;;;;;5.57;4.53;;;;;;;;;;5016499;28;20491;-61
2024/03/24 07:49:15;;;;;;;7.00;5.13;;;;;;;;;;5016486;28;20450;-61
2024/03/24 07:51:41;;;;;;;3.50;3.10;;;;;;;;;;5016657;28;20544;-61
2024/03/24 07:54:06;;;;;;;3.70;3.33;;;;;;;;;;5016368;28;20035;-61
2024/03/24 07:56:32;;;;;;;4.97;3.33;;;;;;;;;;4998695;28;20061;-61
2024/03/24 07:58:58;;;;;;;4.80;3.85;;;;;;;;;;4999063;28;20026;-61
2024/03/24 08:01:23;;;;;;;4.50;4.10;;;;;;;;;;5016474;28;20033;-61
2024/03/24 08:03:49;;;;;;;4.03;3.60;;;;;;;;;;5016159;28;20089;-61
2024/03/24 08:06:14;;;;;;;5.13;3.65;;;;;;;;;;4998582;28;20113;-62
2024/03/24 08:08:40;;;;;;;3.78;3.47;;;;;;;;;;5016361;28;20097;-61
2024/03/24 08:11:05;;;;;;;4.30;3.97;;;;;;;;;;5016521;28;20156;-61
2024/03/24 08:13:31;;;;;;;3.97;3.20;;;;;;;;;;5016493;28;20018;-61
2024/03/24 08:15:56;;;;;;;4.22;3.83;;;;;;;;;;4998340;28;20041;-61
2024/03/24 08:18:21;;;;;;;3.90;3.33;;;;;;;;;;5016118;28;20096;-61
2024/03/24 08:20:47;;;;;;;3.80;3.40;;;;;;;;;;5016389;28;20034;-61
2024/03/24 08:23:13;;;;;;;4.50;3.78;;;;;;;;;;5015785;28;20101;-61
2024/03/24 08:25:40;;;;;;;4.07;3.30;;;;;;;;;;5015780;28;20049;-61
2024/03/24 08:28:05;;;;;;;3.60;3.30;;;;;;;;;;5015829;28;20034;-61
2024/03/24 08:30:31;;;;;;;3.78;3.40;;;;;;;;;;5031208;28;20092;-61
2024/03/24 08:32:56;;;;;;;4.10;3.05;;;;;;;;;;5015918;28;20048;-61
2024/03/24 08:35:22;;;;;;;3.63;3.33;;;;;;;;;;5015562;28;20358;-61
2024/03/24 08:37:49;;;;;;;4.28;3.40;;;;;;;;;;4998236;28;20029;-61
2024/03/24 08:40:14;;;;;;;8.15;5.13;;;;;;;;;;5015476;28;20061;-61
2024/03/24 08:42:40;;;;;;;5.75;5.05;;;;;;;;;;5015426;28;20025;-61
2024/03/24 08:45:05;;;;;;;9.18;6.18;;;;;;;;;;4998152;28;20026;-62
2024/03/24 08:47:31;;;;;;;5.38;3.88;;;;;;;;;;5015865;28;20040;-62
2024/03/24 08:49:56;;;;;;;9.55;5.60;;;;;;;;;;5015556;28;20038;-61
2024/03/24 08:52:22;;;;;;;8.40;5.75;;;;;;;;;;5015835;28;20040;-61
2024/03/24 08:54:47;;;;;;;7.38;6.30;;;;;;;;;;5015224;28;20528;-61
2024/03/24 08:57:12;;;;;;;7.28;5.32;;;;;;;;;;5015662;28;20071;-61
2024/03/24 08:59:38;;;;;;;10.32;8.38;;;;;;;;;;5015394;28;20084;-61
2024/03/24 09:02:03;;;;;;;10.10;6.60;;;;;;;;;;5015075;28;20069;-65
2024/03/24 09:04:29;;;;;;;8.80;5.85;;;;;;;;;;5015577;28;20026;-62
2024/03/24 09:06:54;;;;;;;7.18;5.53;;;;;;;;;;5015272;28;20041;-65
2024/03/24 09:09:20;;;;;;;7.95;6.03;;;;;;;;;;4997467;28;20034;-61
2024/03/24 09:11:45;;;;;;;5.22;4.53;;;;;;;;;;5014875;28;20105;-61
2024/03/24 09:14:10;;;;;;;3.90;3.38;;;;;;;;;;4997249;28;20030;-61
2024/03/24 09:16:36;;;;;;;5.20;4.70;;;;;;;;;;5014708;28;20125;-61
2024/03/24 09:19:02;;;;;;;4.57;4.13;;;;;;;;;;5015294;28;20033;-61
2024/03/24 09:21:28;;;;;;;4.63;4.20;;;;;;;;;;5014791;28;20030;-61
2024/03/24 09:23:54;;;;;;;5.28;4.15;;;;;;;;;;5014510;28;20033;-61
2024/03/24 09:26:19;;;;;;;5.55;5.03;;;;;;;;;;5014947;28;20021;-62
2024/03/24 09:28:47;;;;;;;4.22;3.83;;;;;;;;;;5014395;28;20493;-62
2024/03/24 09:31:13;;;;;;;4.28;3.97;;;;;;;;;;5014541;28;20022;-61
2024/03/24 09:33:39;;;;;;;5.43;5.00;;;;;;;;;;4996929;28;20381;-61
2024/03/24 09:36:04;;;;;;;7.57;6.78;;;;;;;;;;4996878;28;20392;-63
2024/03/24 09:38:30;;;;;;;5.15;4.75;;;;;;;;;;5014586;28;20034;-62
2024/03/24 09:40:55;;;;;;;4.57;4.18;;;;;;;;;;5014710;28;20061;-62
2024/03/24 09:43:21;;;;;;;4.50;4.20;;;;;;;;;;5014312;28;20108;-65
2024/03/24 09:45:46;;;;;;;3.42;3.22;;;;;;;;;;4996677;28;20113;-65
2024/03/24 09:48:12;;;;;;;3.38;3.08;;;;;;;;;;5014538;28;20060;-65
2024/03/24 09:50:38;;;;;;;3.67;3.38;;;;;;;;;;5013190;28;20037;-65
2024/03/24 09:53:04;;;;;;;3.65;3.33;;;;;;;;;;5012049;28;20022;-65
2024/03/24 09:55:30;;;;;;;3.17;2.97;;;;;;;;;;4994478;28;20026;-65
2024/03/24 09:57:56;;;;;;;3.58;3.28;;;;;;;;;;4994642;28;20118;-65
2024/03/24 10:00:22;;;;;;;3.30;3.03;;;;;;;;;;5012059;28;20018;-65
2024/03/24 10:02:48;;;;;;;3.53;3.22;;;;;;;;;;5011910;28;20018;-65
2024/03/24 10:05:15;;;;;;;2.90;2.70;;;;;;;;;;5011992;28;20366;-65
2024/03/24 10:07:40;;;;;;;2.50;2.38;;;;;;;;;;5011896;28;20053;-65
2024/03/24 10:10:06;;;;;;;2.83;2.63;;;;;;;;;;5011864;28;20034;-65
2024/03/24 10:12:32;;;;;;;2.97;2.50;;;;;;;;;;5011813;28;20463;-65
2024/03/24 10:15:14;;;;;;;2.90;2.70;;;;;;;;;;5011747;28;20060;-65
2024/03/24 10:17:40;;;;;;;3.97;2.90;;;;;;;;;;5011634;28;20041;-65
2024/03/24 10:20:05;;;;;;;4.30;2.83;;;;;;;;;;5011756;28;20120;-65
2024/03/24 10:22:31;;;;;;;3.42;2.83;;;;;;;;;;5013508;28;20018;-65
2024/03/24 10:45:07;;;;;;;6.05;4.22;;;;;;;;;;5017114;28;20500;-65
2024/03/24 10:47:33;;;;;;;9.88;5.63;;;;;;;;;;5017625;28;20026;-63
2024/03/24 10:49:59;;;;;;;9.43;5.40;;;;;;;;;;5017545;28;20034;-63
2024/03/24 10:52:32;;;;;;;5.55;4.25;;;;;;;;;;4999938;28;20083;-63
2024/03/24 10:54:57;;;;;;;7.57;5.50;;;;;;;;;;5017725;28;20030;-62
2024/03/24 10:57:28;;;;;;;4.20;3.85;;;;;;;;;;5017865;28;20049;-62
2024/03/24 10:59:54;;;;;;;3.85;3.63;;;;;;;;;;4999782;28;20061;-62
2024/03/24 11:02:20;;;;;;;4.47;4.07;;;;;;;;;;5017586;28;20065;-62
2024/03/24 11:04:47;;;;;;;4.80;4.30;;;;;;;;;;5017563;28;20055;-62
2024/03/24 11:07:13;;;;;;;6.43;5.22;;;;;;;;;;5031908;28;20076;-62
2024/03/24 11:09:38;;;;;;;5.20;4.65;;;;;;;;;;5017405;28;20021;-62
2024/03/24 11:12:04;;;;;;;3.80;3.35;;;;;;;;;;5017141;28;20034;-62
2024/03/24 11:14:30;;;;;;;2.72;2.58;;;;;;;;;;5017133;28;20461;-62
2024/03/24 11:16:56;;;;;;;2.95;2.75;;;;;;;;;;4999257;28;20385;-62
2024/03/24 11:19:26;;;;;;;2.92;2.72;;;;;;;;;;5017035;28;20030;-62
2024/03/24 11:21:52;;;;;;;4.25;3.85;;;;;;;;;;4999744;28;20034;-62
2024/03/24 11:24:24;;;;;;;4.50;2.83;;;;;;;;;;5017186;28;20033;-62
2024/03/24 11:26:50;;;;;;;2.58;2.38;;;;;;;;;;4999917;28;20097;-62
2024/03/24 11:29:34;;;;;;;2.00;1.90;;;;;;;;;;5032014;28;20022;-62
2024/03/24 11:32:00;;;;;;;2.20;1.58;;;;;;;;;;5017318;28;20128;-62
2024/03/24 11:34:26;;;;;;;1.95;1.85;;;;;;;;;;5017284;28;20057;-62
2024/03/24 11:36:52;;;;;;;2.67;2.47;;;;;;;;;;4982200;28;20080;-63
2024/03/24 11:39:19;;;;;;;1.98;1.88;;;;;;;;;;5014520;28;20096;-63
2024/03/24 11:41:51;;;;;;;1.50;1.40;;;;;;;;;;5013836;28;20034;-63
2024/03/24 11:44:17;;;;;;;1.48;1.38;;;;;;;;;;5012738;28;20121;-63
2024/03/24 11:46:45;;;;;;;1.40;1.30;;;;;;;;;;5012992;28;20120;-62
2024/03/24 11:49:11;;;;;;;1.65;1.55;;;;;;;;;;5011897;28;20034;-62
2024/03/24 11:51:37;;;;;;;1.30;1.15;;;;;;;;;;5014443;28;20412;-63
2024/03/24 11:54:03;;;;;;;1.52;1.42;;;;;;;;;;4996878;28;20118;-62
2024/03/24 11:56:29;;;;;;;1.60;1.45;;;;;;;;;;5014816;28;20073;-62
2024/03/24 11:58:56;;;;;;;1.80;1.70;;;;;;;;;;4998153;28;20133;-62
2024/03/24 12:01:22;;;;;;;1.40;1.40;;;;;;;;;;5032245;28;20053;-62
2024/03/24 12:03:47;;;;;;;2.63;2.28;;;;;;;;;;5016493;28;20076;-63
2024/03/24 12:06:16;;;;;;;2.83;2.38;;;;;;;;;;5016475;28;20022;-63
2024/03/24 12:08:42;;;;;;;3.38;2.67;;;;;;;;;;5032143;28;20124;-63
2024/03/24 12:11:08;;;;;;;2.80;2.35;;;;;;;;;;5016103;28;20105;-63
2024/03/24 12:13:35;;;;;;;2.78;2.58;;;;;;;;;;4998617;28;20116;-63
2024/03/24 12:16:00;;;;;;;2.70;2.30;;;;;;;;;;5016256;28;20049;-63
2024/03/24 12:18:28;;;;;;;4.28;2.28;;;;;;;;;;5015831;28;20030;-63
2024/03/24 12:21:00;;;;;;;5.25;2.72;;;;;;;;;;5016161;28;20041;-62
2024/03/24 12:23:26;;;;;;;3.33;2.72;;;;;;;;;;5016117;28;20026;-62
2024/03/24 12:25:55;;;;;;;4.00;2.75;;;;;;;;;;5016328;28;20022;-62
2024/03/24 12:28:21;;;;;;;3.08;2.63;;;;;;;;;;5015748;28;20120;-62
2024/03/24 12:30:50;;;;;;;4.50;2.58;;;;;;;;;;4998516;28;20073;-62
2024/03/24 12:33:18;;;;;;;5.75;3.85;;;;;;;;;;5015932;28;20041;-62
2024/03/24 12:35:49;;;;;;;4.47;3.30;;;;;;;;;;5016204;28;20481;-62
2024/03/24 12:38:15;;;;;;;3.65;2.70;;;;;;;;;;5031324;28;20038;-62
2024/03/24 12:40:54;;;;;;;3.28;2.95;;;;;;;;;;5015549;28;20028;-62
2024/03/24 12:43:23;;;;;;;2.40;2.13;;;;;;;;;;5015470;28;20453;-62
2024/03/24 12:45:54;;;;;;;2.85;2.65;;;;;;;;;;4997801;28;20049;-58
2024/03/24 12:48:19;;;;;;;;;;;;;;;;;;5016096;28;20052;-62
2024/03/24 12:50:46;;;;;;;3.13;2.50;;;;;;;;;;5015318;28;20000;-62
2024/03/24 12:53:32;;;;;;;4.43;2.60;;;;;;;;;;5015779;28;20092;-62
2024/03/24 12:55:59;;;;;;;3.75;3.30;;;;;;;;;;5019614;23;20053;-58
2024/03/24 12:58:27;;;;;;;3.60;3.13;;;;;;;;;;5014684;28;20065;-57
2024/03/24 13:00:53;;;;;;;3.42;3.03;;;;;;;;;;5015163;28;20022;-58
2024/03/24 13:03:18;;;;;;;2.63;2.42;;;;;;;;;;5015060;28;20026;-62
2024/03/24 13:05:44;;;;;;;3.70;2.70;;;;;;;;;;5015649;28;20034;-62
2024/03/24 13:08:10;;;;;;;2.78;2.55;;;;;;;;;;5015547;28;20029;-58
2024/03/24 13:10:46;;;;;;;1.92;1.83;;;;;;;;;;5015250;28;20030;-58
2024/03/24 13:13:13;;;;;;;2.47;2.08;;;;;;;;;;5030879;28;20092;-58
2024/03/24 13:15:41;;;;;;;1.95;1.85;;;;;;;;;;5014947;28;20388;-58
2024/03/24 13:18:11;;;;;;;4.50;2.35;;;;;;;;;;4981055;28;20048;-58
2024/03/24 13:20:38;;;;;;;4.25;2.30;;;;;;;;;;5015041;28;20030;-58
2024/03/24 13:23:06;;;;;;;3.95;2.33;;;;;;;;;;5029969;28;20080;-58
2024/03/24 13:25:32;;;;;;;2.00;1.80;;;;;;;;;;5014653;28;20025;-58
2024/03/24 13:27:58;;;;;;;2.17;2.00;;;;;;;;;;5014935;28;20037;-58
2024/03/24 13:30:24;;;;;;;2.50;2.13;;;;;;;;;;5015202;28;20463;-58
2024/03/24 13:32:50;;;;;;;2.75;1.80;;;;;;;;;;4997090;28;20044;-58
2024/03/24 13:35:16;;;;;;;2.60;2.40;;;;;;;;;;4996925;28;20041;-58
2024/03/24 13:38:09;;;;;;;2.03;1.80;;;;;;;;;;4998023;28;20022;-58
2024/03/24 13:41:02;;;;;;;3.78;2.20;;;;;;;;;;5015005;28;20033;-57
2024/03/24 13:43:34;;;;;;;2.08;1.88;;;;;;;;;;5014951;28;20033;-58
2024/03/24 13:46:09;;;;;;;1.88;1.77;;;;;;;;;;5014911;28;20033;-58
2024/03/24 13:48:35;;;;;;;2.40;1.95;;;;;;;;;;4996784;28;20111;-58
2024/03/24 13:51:05;;;;;;;2.28;2.08;;;;;;;;;;4996716;28;20030;-58
2024/03/24 13:53:35;;;;;;;2.67;2.45;;;;;;;;;;4997357;28;20026;-58
2024/03/24 13:56:00;;;;;;;2.63;2.33;;;;;;;;;;5028997;28;20103;-57
2024/03/24 13:58:26;;;;;;;2.22;2.13;;;;;;;;;;4996503;28;20132;-58
2024/03/24 14:00:53;;;;;;;1.73;1.40;;;;;;;;;;5014641;28;20060;-58
2024/03/24 14:03:18;;;;;;;1.48;1.38;;;;;;;;;;5013356;28;20045;-58
2024/03/24 14:05:46;;;;;;;1.65;1.55;;;;;;;;;;5014567;28;20080;-58
2024/03/24 14:08:12;;;;;;;2.60;1.52;;;;;;;;;;5014010;28;20381;-58
2024/03/24 14:10:41;;;;;;;1.45;1.35;;;;;;;;;;4996489;28;20042;-58
2024/03/24 14:13:24;;;;;;;1.67;1.58;;;;;;;;;;5014539;28;20065;-58
2024/03/24 14:15:52;;;;;;;1.10;1.00;;;;;;;;;;4997138;28;20049;-58
2024/03/24 14:18:36;;;;;;;1.42;1.33;;;;;;;;;;5014010;28;20049;-58
2024/03/24 14:21:25;;;;;;;2.25;1.70;;;;;;;;;;4996338;28;20405;-58
2024/03/24 14:24:09;;;;;;;3.05;2.40;;;;;;;;;;5013825;28;20026;-58
2024/03/24 14:26:35;;;;;;;1.92;1.63;;;;;;;;;;5014110;28;20022;-58
2024/03/24 14:29:03;;;;;;;1.67;1.58;;;;;;;;;;4996616;28;20050;-58
2024/03/24 14:31:30;;;;;;;2.25;1.63;;;;;;;;;;4997012;28;20042;-58
2024/03/24 14:33:57;;;;;;;1.75;1.25;;;;;;;;;;5014084;28;20030;-57
2024/03/24 14:36:52;;;;;;;1.75;1.60;;;;;;;;;;4996583;28;20044;-58
2024/03/24 14:39:38;;;;;;;2.65;1.52;;;;;;;;;;4977764;28;20051;-58
2024/03/24 14:42:10;;;;;;;1.73;1.55;;;;;;;;;;5028834;28;20041;-57
2024/03/24 14:44:43;;;;;;;1.52;1.42;;;;;;;;;;5014252;28;20038;-57
2024/03/24 14:47:20;;;;;;;1.33;1.23;;;;;;;;;;5013944;28;20030;-57
2024/03/24 14:49:46;;;;;;;1.60;1.50;;;;;;;;;;5013943;28;20080;-58
2024/03/24 14:52:14;;;;;;;1.45;1.35;;;;;;;;;;4995955;28;20042;-57
2024/03/24 14:54:40;;;;;;;2.22;1.85;;;;;;;;;;5014165;28;20378;-58
2024/03/24 14:57:05;;;;;;;2.03;1.50;;;;;;;;;;5013230;28;20124;-56
2024/03/24 14:59:32;;;;;;;1.58;1.48;;;;;;;;;;5013481;28;20469;-57